This is the latest recevied weather packets stored in our database for station/object SV4JYD-13. If no packets are shown the sender has not sent any weather packets the latest 1 day(s).
| Time | Temp. | Humidity | Pressure | Rain* | Wind** | Luminosity | Snow |
|---|---|---|---|---|---|---|---|
| 1778046423 | 17.22° C | 10% | - | 0 mm | 0.45 m/s, 311° | - | - |
| 1778045523 | 15° C | 86% | 1016 hPa | 0 mm | 0.45 m/s, 319° | - | - |
| 1778044622 | 15° C | 82% | 1016 hPa | 0 mm | 0.45 m/s, 319° | - | - |
| 1778043722 | 15.56° C | 77% | 1016 hPa | 0 mm | 0.45 m/s, 319° | - | - |
| 1778042822 | 16.11° C | 77% | 1016 hPa | 0 mm | 0.45 m/s, 319° | - | - |
| 1778041922 | 15° C | 80% | 1016 hPa | 0 mm | 0.45 m/s, 319° | - | - |
| 1778041022 | 14.44° C | 81% | 1015 hPa | 0 mm | 0.45 m/s, 319° | - | - |
| 1778040121 | 14.44° C | 81% | 1015 hPa | 0 mm | 0.89 m/s, 319° | - | - |
| 1778039221 | 13.89° C | 83% | 1015 hPa | 0 mm | 1.34 m/s, 319° | - | - |
| 1778038321 | 12.78° C | 10% | - | 0 mm | 1.34 m/s, 319° | - | - |
| 1778037421 | 13.33° C | 10% | - | 0 mm | 1.34 m/s, 314° | - | - |
| 1778036520 | 13.33° C | 10% | - | 0 mm | 1.34 m/s, 314° | - | - |
| 1778035620 | 13.33° C | 10% | - | 0 mm | 0.89 m/s, 314° | - | - |
| 1778034720 | 13.89° C | 10% | - | 0 mm | 1.34 m/s, 314° | - | - |
| 1778033820 | 13.33° C | 10% | - | 0 mm | 0.45 m/s, 278° | - | - |
| 1778032919 | 13.89° C | 10% | - | 0 mm | 0.45 m/s, 278° | - | - |
| 1778032019 | 14.44° C | 10% | - | 0 mm | 0.45 m/s, 278° | - | - |
| 1778031119 | 15° C | 10% | - | 0 mm | 0.89 m/s, 278° | - | - |
| 1778030219 | 13.33° C | 84% | 1015 hPa | 0 mm | 1.34 m/s, 236° | - | - |
| 1778029318 | 13.33° C | 85% | 1015 hPa | 0 mm | 0.45 m/s, 238° | - | - |
| 1778028418 | 13.89° C | 84% | 1015 hPa | 0 mm | 0.45 m/s, 238° | - | - |
| 1778027518 | 14.44° C | 83% | 1015 hPa | 0 mm | 0.45 m/s, 238° | - | - |
| 1778026618 | 13.89° C | 83% | 1015 hPa | 0 mm | 0.45 m/s, 115° | - | - |
| 1778025717 | 14.44° C | 82% | 1015 hPa | 0 mm | 0.45 m/s, 115° | - | - |
| 1778024817 | 14.44° C | 82% | 1015 hPa | 0 mm | 0.45 m/s, 115° | - | - |
* Rain latest hour (hover to see other rain measurements)
** Current wind speed in m/s (hover to see current wind gust speed)